Ship Status Report: callsign BAREU51

sailwx.info

Track history (hours):
 
Tides and Currents Weather Stations Pressure Air Temp Water Temp Dewpoint Dewpoint Depression Visibility Wind Speed Wind Dir Waves Ship Positions

Callsign BAREU51 (name unknown)

Last reported at 2014-Jul-30 15:00 UTC. Time now 2014-Jul-30 21:18 UTC.
Position N 44°24' E 008°54'.

Barometer 1007.8 mb
Air temperature 22.9 ° C

Date/timePositionNaut miles runAvg speedWind from/ knotsBaromVisibWave heightAir tempDewpointWater temp
2014-Jul-30 15:00N 44°24' E 008°54'1514.8 1007.8 22.9
2014-Jul-30 14:00N 44°12' E 009°06'2424.4 1007.4 22.9
2014-Jul-30 13:00N 43°48' E 009°12'2625.5 1006.9 22.4
2014-Jul-30 12:00N 43°24' E 009°24'2020.0 1005.3 22.1
2014-Jul-30 11:00N 43°06' E 009°36'2424.4 1004.1 22.0
2014-Jul-30 10:00N 42°42' E 009°42'4924.4 1006.4 22.1
2014-Jul-30 08:00N 41°54' E 009°54'2424.0 1006.3 21.3
2014-Jul-30 07:00N 41°30' E 009°54'1918.6 1005.4 21.8
2014-Jul-30 06:00N 41°12' E 010°00'2424.4 1005.3 21.2
2014-Jul-30 05:00N 40°48' E 010°06'2424.4 1005.4 21.4
2014-Jul-30 04:00N 40°24' E 010°12'2424.0 1006.5 21.7
2014-Jul-30 03:00N 40°00' E 010°12'2424.4 1007.5 22.8
2014-Jul-30 02:00N 39°36' E 010°18'1818.0 1008.0 22.3
2014-Jul-30 01:00N 39°18' E 010°18'2424.0 1006.7 21.8
2014-Jul-30 00:00N 38°54' E 010°18'2424.5 1007.5 22.2
2014-Jul-29 23:00N 38°30' E 010°24'1818.0 1008.0 22.9
2014-Jul-29 22:00N 38°12' E 010°24'2424.5 1008.3 23.4
2014-Jul-29 21:00N 37°48' E 010°30'2424.0 1008.1 23.3
2014-Jul-29 20:00N 37°24' E 010°30'2424.0 1008.2 24.2
2014-Jul-29 19:00N 37°00' E 010°30'1515.4 1007.9 25.0
2014-Jul-29 18:00N 36°48' E 010°18'5 0.7 1008.2 26.0
2014-Jul-29 11:00N 36°48' E 010°24'2424.5 1007.7 33.1
2014-Jul-29 10:00N 37°12' E 010°30'2424.0 1007.2 29.9
2014-Jul-29 09:00N 37°36' E 010°30'2424.5 1009.1 27.1
2014-Jul-29 08:00N 38°00' E 010°24'2424.0 1010.0 25.3
2014-Jul-29 07:00N 38°24' E 010°24'2424.0 1008.8 24.2
2014-Jul-29 06:00N 38°48' E 010°24'2424.4 1009.1 23.3
2014-Jul-29 05:00N 39°12' E 010°18'2424.0 1009.3 23.3
2014-Jul-29 04:00N 39°36' E 010°18'3030.4 1009.2 24.2
2014-Jul-29 03:00N 40°06' E 010°12'2424.0 1010.2 24.2
2014-Jul-29 02:00N 40°30' E 010°12'2424.4 1010.1 24.4
2014-Jul-29 01:00N 40°54' E 010°06'2424.4 1010.9 23.9
2014-Jul-29 00:00N 41°18' E 010°00'2424.4 1009.2 23.6
2014-Jul-28 23:00N 41°42' E 009°54'2424.4 1009.0 23.3
2014-Jul-28 22:00N 42°06' E 009°48'4924.4 1010.0 23.8
2014-Jul-28 20:00N 42°54' E 009°36'2424.4 1010.5 25.6
2014-Jul-28 19:00N 43°18' E 009°30'2625.5 1007.3 23.6
2014-Jul-28 18:00N 43°42' E 009°18'2625.5 1007.2 23.2
2014-Jul-28 17:00N 44°06' E 009°06'13 1.4 1007.5 23.9
2014-Jul-28 08:00N 43°54' E 009°12'2625.5 1013.5 25.0
2014-Jul-28 07:00N 43°30' E 009°24'2625.5 1013.6 24.3
2014-Jul-28 06:00N 43°06' E 009°36'2424.4 1014.0 24.4
2014-Jul-28 05:00N 42°42' E 009°42'3030.3 1012.9 23.2
2014-Jul-28 04:00N 42°12' E 009°48'4924.4 1012.0 22.6
2014-Jul-28 02:00N 41°24' E 010°00'2424.4 1011.6 22.4
2014-Jul-28 01:00N 41°00' E 010°06'2424.4 1012.0 22.6
2014-Jul-28 00:00N 40°36' E 010°12'2424.0 1012.4 23.7
2014-Jul-27 23:00N 40°12' E 010°12'3030.4 1012.8 24.1
2014-Jul-27 22:00N 39°42' E 010°18'4824.1 1012.5 24.6
2014-Jul-27 20:00N 38°54' E 010°24'2424.0 1011.5 24.8
2014-Jul-27 19:00N 38°30' E 010°24'2424.0 1011.2 24.2
2014-Jul-27 18:00N 38°06' E 010°24'3030.4 1011.2 24.1
2014-Jul-27 17:00N 37°36' E 010°30'2424.0 1011.5 25.2
2014-Jul-27 16:00N 37°12' E 010°30'2424.5 1011.8 25.8
2014-Jul-27 15:00N 36°48' E 010°24'0 0.0 1013.7 28.2
2014-Jul-27 09:00N 36°48' E 010°24'2424.5 1015.7 27.1
2014-Jul-27 08:00N 37°12' E 010°30'2424.0 1014.5 24.3
2014-Jul-27 07:00N 37°36' E 010°30'2424.5 1015.4 23.8
2014-Jul-27 06:00N 38°00' E 010°24'2424.0 1013.7 23.6
2014-Jul-27 05:00N 38°24' E 010°24'2424.5 1011.9 23.5
2014-Jul-27 04:00N 38°48' E 010°18'3030.0 1012.1 25.1
2014-Jul-27 03:00N 39°18' E 010°18'2424.0 1011.6 24.2
2014-Jul-27 02:00N 39°42' E 010°18'2424.4 1011.2 24.4
2014-Jul-27 01:00N 40°06' E 010°12'2424.0 1011.2 25.2
2014-Jul-27 00:00N 40°30' E 010°12'2424.4 1011.4 24.5
2014-Jul-26 23:00N 40°54' E 010°06'2424.4 1010.5 22.8
2014-Jul-26 22:00N 41°18' E 010°00'2424.4 1008.6 22.5
2014-Jul-26 21:00N 41°42' E 009°54'3030.3 1010.4 23.8
2014-Jul-26 20:00N 42°12' E 009°48'2424.4 1010.2 24.1
2014-Jul-26 19:00N 42°36' E 009°42'2424.4 1009.6 24.0
2014-Jul-26 18:00N 43°00' E 009°36'2625.5 1009.2 23.5
2014-Jul-26 17:00N 43°24' E 009°24'2020.0 1010.2 24.5
2014-Jul-26 16:00N 43°42' E 009°12'2424.4 1009.4 24.7
2014-Jul-26 15:00N 44°06' E 009°06'2010.0 1009.1 26.3
2014-Jul-26 13:00N 44°24' E 008°54'4 0.2 1010.3 27.0
2014-Jul-25 18:00N 44°24' E 009°00'2525.5 1012.0 24.0
2014-Jul-25 17:00N 44°00' E 009°12'2424.4 1010.9 24.0
2014-Jul-25 16:00N 43°36' E 009°18'2625.5 1012.1 24.7
2014-Jul-25 15:00N 43°12' E 009°30'2625.6 1012.6 25.4
2014-Jul-25 14:00N 42°48' E 009°42'2424.4 1013.8 26.3
2014-Jul-25 13:00N 42°24' E 009°48'3030.0 1013.7 26.4
2014-Jul-25 12:00N 41°54' E 009°48'2424.4 1014.0 26.4
2014-Jul-25 11:00N 41°30' E 009°54'2424.4 1014.6 25.3
2014-Jul-25 10:00N 41°06' E 010°00'2424.4 1014.7 24.8
2014-Jul-25 09:00N 40°42' E 010°06'2424.4 1015.5 25.5
2014-Jul-25 08:00N 40°18' E 010°12'2424.0 1015.2 25.7
2014-Jul-25 07:00N 39°54' E 010°12'2424.4 1015.4 25.5
2014-Jul-25 06:00N 39°30' E 010°18'2424.0 1013.8 23.5
2014-Jul-25 05:00N 39°06' E 010°18'2424.5 1012.6 23.1
2014-Jul-25 04:00N 38°42' E 010°24'2424.0 1011.6 22.6
2014-Jul-25 03:00N 38°18' E 010°24'2424.5 1011.6 22.7
2014-Jul-25 02:00N 37°54' E 010°30'2424.0 1011.8 23.3
2014-Jul-25 01:00N 37°30' E 010°30'1818.0 1011.9 24.5
2014-Jul-25 00:00N 37°12' E 010°30'2424.5 1012.0 24.9
2014-Jul-24 23:00N 36°48' E 010°24'5 0.7 1012.2 25.1
2014-Jul-24 16:00N 36°48' E 010°18'3718.6 1011.6 26.6
2014-Jul-24 14:00N 37°24' E 010°30'3030.0 1012.6 26.2
2014-Jul-24 13:00N 37°54' E 010°30'2424.5 1012.9 25.4
2014-Jul-24 12:00N 38°18' E 010°24'3030.0 1013.1 25.0
2014-Jul-24 11:00N 38°48' E 010°24'2424.4 1013.2 25.0
2014-Jul-24 10:00N 39°12' E 010°18'3030.0 1013.3 25.1
2014-Jul-24 09:00N 39°42' E 010°18'2424.4 1013.3 25.4
2014-Jul-24 08:00N 40°06' E 010°12'3030.0 1013.6 23.8
2014-Jul-24 07:00N 40°36' E 010°12'2424.4 1013.0 23.9
2014-Jul-24 06:00N 41°00' E 010°06'3030.3 1011.5 22.1
2014-Jul-24 05:00N 41°30' E 010°00'2424.4 1009.9 22.0
2014-Jul-24 04:00N 41°54' E 009°54'2424.4 1010.5 23.2
2014-Jul-24 03:00N 42°18' E 009°48'3030.3 1010.5 23.0
2014-Jul-24 02:00N 42°48' E 009°42'2625.6 1010.7 22.8
2014-Jul-24 01:00N 43°12' E 009°30'2625.5 1010.5 22.6
2014-Jul-24 00:00N 43°36' E 009°18'3131.2 1011.0 23.1
2014-Jul-23 23:00N 44°06' E 009°06'19 2.1 1010.9 23.4
2014-Jul-23 14:00N 44°24' E 009°00'2525.5 1010.4 25.7
2014-Jul-23 13:00N 44°00' E 009°12'2424.4 1010.9 25.8
2014-Jul-23 12:00N 43°36' E 009°18'2625.5 1011.1 25.2
2014-Jul-23 11:00N 43°12' E 009°30'2625.6 1010.8 24.4
2014-Jul-23 10:00N 42°48' E 009°42'4824.1 1010.4 24.8
2014-Jul-23 08:00N 42°00' E 009°48'2625.6 1011.3 23.6
2014-Jul-23 07:00N 41°36' E 010°00'2424.0 1011.4 22.9
2014-Jul-23 06:00N 41°12' E 010°00'2424.4 1010.1 22.1
2014-Jul-23 05:00N 40°48' E 010°06'2424.4 1009.8 22.1
2014-Jul-23 04:00N 40°24' E 010°12'1818.0 1009.2 21.8
2014-Jul-23 03:00N 40°06' E 010°12'2424.4 1009.0 22.8
2014-Jul-23 02:00N 39°42' E 010°18'2424.0 1009.5 23.1
2014-Jul-23 01:00N 39°18' E 010°18'4221.1 1009.6 22.8
2014-Jul-22 23:00N 38°36' E 010°24'1818.0 1009.8 22.7
2014-Jul-22 22:00N 38°18' E 010°24'2424.5 1010.3 22.8
2014-Jul-22 21:00N 37°54' E 010°30'1818.0 1009.9 22.9
2014-Jul-22 20:00N 37°36' E 010°30'2424.0 1010.3 23.2
2014-Jul-22 19:00N 37°12' E 010°30'1918.6 1009.6 23.8
2014-Jul-22 18:00N 36°54' E 010°24'6 0.9 1010.6 25.3
2014-Jul-22 11:00N 36°48' E 010°24'2424.5 1013.4 27.4
2014-Jul-22 10:00N 37°12' E 010°30'2424.5 1013.6 24.3
2014-Jul-22 09:00N 37°36' E 010°24'2625.8 1012.8 23.7
2014-Jul-22 08:00N 38°00' E 010°12'2424.5 1012.3 23.3
2014-Jul-22 07:00N 38°24' E 010°06'2625.8 1010.6 23.2
2014-Jul-22 06:00N 38°48' E 009°54'2424.4 1010.4 23.4
2014-Jul-22 05:00N 39°12' E 009°48'3030.4 1009.5 23.5
2014-Jul-22 04:00N 39°42' E 009°54'2424.0 1006.7 24.3
2014-Jul-22 03:00N 40°06' E 009°54'2424.4 1008.0 24.5
2014-Jul-22 02:00N 40°30' E 010°00'2424.0 1008.0 23.5
2014-Jul-22 01:00N 40°54' E 010°00'5427.1 1005.3 22.8
2014-Jul-21 23:00N 41°48' E 009°54'2424.4 1007.4 22.4
2014-Jul-21 22:00N 42°12' E 009°48'2424.4 1008.5 22.7
2014-Jul-21 21:00N 42°36' E 009°42'2424.4 1008.2 23.2
2014-Jul-21 20:00N 43°00' E 009°36'2625.5 1007.9 23.4
2014-Jul-21 19:00N 43°24' E 009°24'2625.5 1006.1 21.9
2014-Jul-21 18:00N 43°48' E 009°12'2424.4 1007.3 22.6
2014-Jul-21 17:00N 44°12' E 009°06'7 0.9 1007.9 23.0
2014-Jul-21 09:00N 44°18' E 009°00'2625.5 1009.1 23.1
2014-Jul-21 08:00N 43°54' E 009°12'2625.5 1008.1 22.7
2014-Jul-21 07:00N 43°30' E 009°24'2020.0 1006.5 22.3
2014-Jul-21 06:00N 43°12' E 009°36'3030.3 1002.9 22.6
2014-Jul-21 05:00N 42°42' E 009°42'2424.4 1009.7 23.9
2014-Jul-21 04:00N 42°18' E 009°48'2424.4 1008.2 23.8
2014-Jul-21 03:00N 41°54' E 009°54'2424.4 1007.9 23.6
2014-Jul-21 02:00N 41°30' E 010°00'2424.4 1007.8 23.0
2014-Jul-21 01:00N 41°06' E 010°06'4824.1 1011.1 23.8
2014-Jul-20 23:00N 40°18' E 010°12'2424.0 1012.9 24.5
2014-Jul-20 22:00N 39°54' E 010°12'3030.4 1012.7 24.8
2014-Jul-20 21:00N 39°24' E 010°18'2424.0 1013.3 24.6
2014-Jul-20 20:00N 39°00' E 010°18'2424.5 1013.3 24.7
2014-Jul-20 19:00N 38°36' E 010°24'2424.0 1013.6 24.9
2014-Jul-20 18:00N 38°12' E 010°24'3030.4 1012.1 24.5
2014-Jul-20 17:00N 37°42' E 010°30'2424.0 1010.2 25.4
2014-Jul-20 16:00N 37°18' E 010°30'2424.5 1012.6 27.4
2014-Jul-20 15:00N 36°54' E 010°24'   1011.1 31.3
Track history (hours):
 
Tides and Currents Weather Stations Pressure Air Temp Water Temp Dewpoint Dewpoint Depression Visibility Wind Speed Wind Dir Waves Ship Positions

Callsign BAREU51 (name unknown)

Last reported at 2014-Jul-30 15:00 UTC. Time now 2014-Jul-30 21:18 UTC.
Position N 44°24' E 008°54'.

Barometer 1007.8 mb
Air temperature 22.9 ° C

Date/timePositionNaut miles runAvg speedWind from/ knotsBaromVisibWave heightAir tempDewpointWater temp
2014-Jul-30 15:00N 44°24' E 008°54'1514.8 1007.8 22.9
2014-Jul-30 14:00N 44°12' E 009°06'2424.4 1007.4 22.9
2014-Jul-30 13:00N 43°48' E 009°12'2625.5 1006.9 22.4
2014-Jul-30 12:00N 43°24' E 009°24'2020.0 1005.3 22.1
2014-Jul-30 11:00N 43°06' E 009°36'2424.4 1004.1 22.0
2014-Jul-30 10:00N 42°42' E 009°42'4924.4 1006.4 22.1
2014-Jul-30 08:00N 41°54' E 009°54'2424.0 1006.3 21.3
2014-Jul-30 07:00N 41°30' E 009°54'1918.6 1005.4 21.8
2014-Jul-30 06:00N 41°12' E 010°00'2424.4 1005.3 21.2
2014-Jul-30 05:00N 40°48' E 010°06'2424.4 1005.4 21.4
2014-Jul-30 04:00N 40°24' E 010°12'2424.0 1006.5 21.7
2014-Jul-30 03:00N 40°00' E 010°12'2424.4 1007.5 22.8
2014-Jul-30 02:00N 39°36' E 010°18'1818.0 1008.0 22.3
2014-Jul-30 01:00N 39°18' E 010°18'2424.0 1006.7 21.8
2014-Jul-30 00:00N 38°54' E 010°18'2424.5 1007.5 22.2
2014-Jul-29 23:00N 38°30' E 010°24'1818.0 1008.0 22.9
2014-Jul-29 22:00N 38°12' E 010°24'2424.5 1008.3 23.4
2014-Jul-29 21:00N 37°48' E 010°30'2424.0 1008.1 23.3
2014-Jul-29 20:00N 37°24' E 010°30'2424.0 1008.2 24.2
2014-Jul-29 19:00N 37°00' E 010°30'1515.4 1007.9 25.0
2014-Jul-29 18:00N 36°48' E 010°18'5 0.7 1008.2 26.0
2014-Jul-29 11:00N 36°48' E 010°24'2424.5 1007.7 33.1
2014-Jul-29 10:00N 37°12' E 010°30'2424.0 1007.2 29.9
2014-Jul-29 09:00N 37°36' E 010°30'2424.5 1009.1 27.1
2014-Jul-29 08:00N 38°00' E 010°24'2424.0 1010.0 25.3
2014-Jul-29 07:00N 38°24' E 010°24'2424.0 1008.8 24.2
2014-Jul-29 06:00N 38°48' E 010°24'2424.4 1009.1 23.3
2014-Jul-29 05:00N 39°12' E 010°18'2424.0 1009.3 23.3
2014-Jul-29 04:00N 39°36' E 010°18'3030.4 1009.2 24.2
2014-Jul-29 03:00N 40°06' E 010°12'2424.0 1010.2 24.2
2014-Jul-29 02:00N 40°30' E 010°12'2424.4 1010.1 24.4
2014-Jul-29 01:00N 40°54' E 010°06'2424.4 1010.9 23.9
2014-Jul-29 00:00N 41°18' E 010°00'2424.4 1009.2 23.6
2014-Jul-28 23:00N 41°42' E 009°54'2424.4 1009.0 23.3
2014-Jul-28 22:00N 42°06' E 009°48'4924.4 1010.0 23.8
2014-Jul-28 20:00N 42°54' E 009°36'2424.4 1010.5 25.6
2014-Jul-28 19:00N 43°18' E 009°30'2625.5 1007.3 23.6
2014-Jul-28 18:00N 43°42' E 009°18'2625.5 1007.2 23.2
2014-Jul-28 17:00N 44°06' E 009°06'13 1.4 1007.5 23.9
2014-Jul-28 08:00N 43°54' E 009°12'2625.5 1013.5 25.0
2014-Jul-28 07:00N 43°30' E 009°24'2625.5 1013.6 24.3
2014-Jul-28 06:00N 43°06' E 009°36'2424.4 1014.0 24.4
2014-Jul-28 05:00N 42°42' E 009°42'3030.3 1012.9 23.2
2014-Jul-28 04:00N 42°12' E 009°48'4924.4 1012.0 22.6
2014-Jul-28 02:00N 41°24' E 010°00'2424.4 1011.6 22.4
2014-Jul-28 01:00N 41°00' E 010°06'2424.4 1012.0 22.6
2014-Jul-28 00:00N 40°36' E 010°12'2424.0 1012.4 23.7
2014-Jul-27 23:00N 40°12' E 010°12'3030.4 1012.8 24.1
2014-Jul-27 22:00N 39°42' E 010°18'4824.1 1012.5 24.6
2014-Jul-27 20:00N 38°54' E 010°24'2424.0 1011.5 24.8
2014-Jul-27 19:00N 38°30' E 010°24'2424.0 1011.2 24.2
2014-Jul-27 18:00N 38°06' E 010°24'3030.4 1011.2 24.1
2014-Jul-27 17:00N 37°36' E 010°30'2424.0 1011.5 25.2
2014-Jul-27 16:00N 37°12' E 010°30'2424.5 1011.8 25.8
2014-Jul-27 15:00N 36°48' E 010°24'0 0.0 1013.7 28.2
2014-Jul-27 09:00N 36°48' E 010°24'2424.5 1015.7 27.1
2014-Jul-27 08:00N 37°12' E 010°30'2424.0 1014.5 24.3
2014-Jul-27 07:00N 37°36' E 010°30'2424.5 1015.4 23.8
2014-Jul-27 06:00N 38°00' E 010°24'2424.0 1013.7 23.6
2014-Jul-27 05:00N 38°24' E 010°24'2424.5 1011.9 23.5
2014-Jul-27 04:00N 38°48' E 010°18'3030.0 1012.1 25.1
2014-Jul-27 03:00N 39°18' E 010°18'2424.0 1011.6 24.2
2014-Jul-27 02:00N 39°42' E 010°18'2424.4 1011.2 24.4
2014-Jul-27 01:00N 40°06' E 010°12'2424.0 1011.2 25.2
2014-Jul-27 00:00N 40°30' E 010°12'2424.4 1011.4 24.5
2014-Jul-26 23:00N 40°54' E 010°06'2424.4 1010.5 22.8
2014-Jul-26 22:00N 41°18' E 010°00'2424.4 1008.6 22.5
2014-Jul-26 21:00N 41°42' E 009°54'3030.3 1010.4 23.8
2014-Jul-26 20:00N 42°12' E 009°48'2424.4 1010.2 24.1
2014-Jul-26 19:00N 42°36' E 009°42'2424.4 1009.6 24.0
2014-Jul-26 18:00N 43°00' E 009°36'2625.5 1009.2 23.5
2014-Jul-26 17:00N 43°24' E 009°24'2020.0 1010.2 24.5
2014-Jul-26 16:00N 43°42' E 009°12'2424.4 1009.4 24.7
2014-Jul-26 15:00N 44°06' E 009°06'2010.0 1009.1 26.3
2014-Jul-26 13:00N 44°24' E 008°54'4 0.2 1010.3 27.0
2014-Jul-25 18:00N 44°24' E 009°00'2525.5 1012.0 24.0
2014-Jul-25 17:00N 44°00' E 009°12'2424.4 1010.9 24.0
2014-Jul-25 16:00N 43°36' E 009°18'2625.5 1012.1 24.7
2014-Jul-25 15:00N 43°12' E 009°30'2625.6 1012.6 25.4
2014-Jul-25 14:00N 42°48' E 009°42'2424.4 1013.8 26.3
2014-Jul-25 13:00N 42°24' E 009°48'3030.0 1013.7 26.4
2014-Jul-25 12:00N 41°54' E 009°48'2424.4 1014.0 26.4
2014-Jul-25 11:00N 41°30' E 009°54'2424.4 1014.6 25.3
2014-Jul-25 10:00N 41°06' E 010°00'2424.4 1014.7 24.8
2014-Jul-25 09:00N 40°42' E 010°06'2424.4 1015.5 25.5
2014-Jul-25 08:00N 40°18' E 010°12'2424.0 1015.2 25.7
2014-Jul-25 07:00N 39°54' E 010°12'2424.4 1015.4 25.5
2014-Jul-25 06:00N 39°30' E 010°18'2424.0 1013.8 23.5
2014-Jul-25 05:00N 39°06' E 010°18'2424.5 1012.6 23.1
2014-Jul-25 04:00N 38°42' E 010°24'2424.0 1011.6 22.6
2014-Jul-25 03:00N 38°18' E 010°24'2424.5 1011.6 22.7
2014-Jul-25 02:00N 37°54' E 010°30'2424.0 1011.8 23.3
2014-Jul-25 01:00N 37°30' E 010°30'1818.0 1011.9 24.5
2014-Jul-25 00:00N 37°12' E 010°30'2424.5 1012.0 24.9
2014-Jul-24 23:00N 36°48' E 010°24'5 0.7 1012.2 25.1
2014-Jul-24 16:00N 36°48' E 010°18'3718.6 1011.6 26.6
2014-Jul-24 14:00N 37°24' E 010°30'3030.0 1012.6 26.2
2014-Jul-24 13:00N 37°54' E 010°30'2424.5 1012.9 25.4
2014-Jul-24 12:00N 38°18' E 010°24'3030.0 1013.1 25.0
2014-Jul-24 11:00N 38°48' E 010°24'2424.4 1013.2 25.0
2014-Jul-24 10:00N 39°12' E 010°18'3030.0 1013.3 25.1
2014-Jul-24 09:00N 39°42' E 010°18'2424.4 1013.3 25.4
2014-Jul-24 08:00N 40°06' E 010°12'3030.0 1013.6 23.8
2014-Jul-24 07:00N 40°36' E 010°12'2424.4 1013.0 23.9
2014-Jul-24 06:00N 41°00' E 010°06'3030.3 1011.5 22.1
2014-Jul-24 05:00N 41°30' E 010°00'2424.4 1009.9 22.0
2014-Jul-24 04:00N 41°54' E 009°54'2424.4 1010.5 23.2
2014-Jul-24 03:00N 42°18' E 009°48'3030.3 1010.5 23.0
2014-Jul-24 02:00N 42°48' E 009°42'2625.6 1010.7 22.8
2014-Jul-24 01:00N 43°12' E 009°30'2625.5 1010.5 22.6
2014-Jul-24 00:00N 43°36' E 009°18'3131.2 1011.0 23.1
2014-Jul-23 23:00N 44°06' E 009°06'19 2.1 1010.9 23.4
2014-Jul-23 14:00N 44°24' E 009°00'2525.5 1010.4 25.7
2014-Jul-23 13:00N 44°00' E 009°12'2424.4 1010.9 25.8
2014-Jul-23 12:00N 43°36' E 009°18'2625.5 1011.1 25.2
2014-Jul-23 11:00N 43°12' E 009°30'2625.6 1010.8 24.4
2014-Jul-23 10:00N 42°48' E 009°42'4824.1 1010.4 24.8
2014-Jul-23 08:00N 42°00' E 009°48'2625.6 1011.3 23.6
2014-Jul-23 07:00N 41°36' E 010°00'2424.0 1011.4 22.9
2014-Jul-23 06:00N 41°12' E 010°00'2424.4 1010.1 22.1
2014-Jul-23 05:00N 40°48' E 010°06'2424.4 1009.8 22.1
2014-Jul-23 04:00N 40°24' E 010°12'1818.0 1009.2 21.8
2014-Jul-23 03:00N 40°06' E 010°12'2424.4 1009.0 22.8
2014-Jul-23 02:00N 39°42' E 010°18'2424.0 1009.5 23.1
2014-Jul-23 01:00N 39°18' E 010°18'4221.1 1009.6 22.8
2014-Jul-22 23:00N 38°36' E 010°24'1818.0 1009.8 22.7
2014-Jul-22 22:00N 38°18' E 010°24'2424.5 1010.3 22.8
2014-Jul-22 21:00N 37°54' E 010°30'1818.0 1009.9 22.9
2014-Jul-22 20:00N 37°36' E 010°30'2424.0 1010.3 23.2
2014-Jul-22 19:00N 37°12' E 010°30'1918.6 1009.6 23.8
2014-Jul-22 18:00N 36°54' E 010°24'6 0.9 1010.6 25.3
2014-Jul-22 11:00N 36°48' E 010°24'2424.5 1013.4 27.4
2014-Jul-22 10:00N 37°12' E 010°30'2424.5 1013.6 24.3
2014-Jul-22 09:00N 37°36' E 010°24'2625.8 1012.8 23.7
2014-Jul-22 08:00N 38°00' E 010°12'2424.5 1012.3 23.3
2014-Jul-22 07:00N 38°24' E 010°06'2625.8 1010.6 23.2
2014-Jul-22 06:00N 38°48' E 009°54'2424.4 1010.4 23.4
2014-Jul-22 05:00N 39°12' E 009°48'3030.4 1009.5 23.5
2014-Jul-22 04:00N 39°42' E 009°54'2424.0 1006.7 24.3
2014-Jul-22 03:00N 40°06' E 009°54'2424.4 1008.0 24.5
2014-Jul-22 02:00N 40°30' E 010°00'2424.0 1008.0 23.5
2014-Jul-22 01:00N 40°54' E 010°00'5427.1 1005.3 22.8
2014-Jul-21 23:00N 41°48' E 009°54'2424.4 1007.4 22.4
2014-Jul-21 22:00N 42°12' E 009°48'2424.4 1008.5 22.7
2014-Jul-21 21:00N 42°36' E 009°42'2424.4 1008.2 23.2
2014-Jul-21 20:00N 43°00' E 009°36'2625.5 1007.9 23.4
2014-Jul-21 19:00N 43°24' E 009°24'2625.5 1006.1 21.9
2014-Jul-21 18:00N 43°48' E 009°12'2424.4 1007.3 22.6
2014-Jul-21 17:00N 44°12' E 009°06'7 0.9 1007.9 23.0
2014-Jul-21 09:00N 44°18' E 009°00'2625.5 1009.1 23.1
2014-Jul-21 08:00N 43°54' E 009°12'2625.5 1008.1 22.7
2014-Jul-21 07:00N 43°30' E 009°24'2020.0 1006.5 22.3
2014-Jul-21 06:00N 43°12' E 009°36'3030.3 1002.9 22.6
2014-Jul-21 05:00N 42°42' E 009°42'2424.4 1009.7 23.9
2014-Jul-21 04:00N 42°18' E 009°48'2424.4 1008.2 23.8
2014-Jul-21 03:00N 41°54' E 009°54'2424.4 1007.9 23.6
2014-Jul-21 02:00N 41°30' E 010°00'2424.4 1007.8 23.0
2014-Jul-21 01:00N 41°06' E 010°06'4824.1 1011.1 23.8
2014-Jul-20 23:00N 40°18' E 010°12'2424.0 1012.9 24.5
2014-Jul-20 22:00N 39°54' E 010°12'3030.4 1012.7 24.8
2014-Jul-20 21:00N 39°24' E 010°18'2424.0 1013.3 24.6
2014-Jul-20 20:00N 39°00' E 010°18'2424.5 1013.3 24.7
2014-Jul-20 19:00N 38°36' E 010°24'2424.0 1013.6 24.9
2014-Jul-20 18:00N 38°12' E 010°24'3030.4 1012.1 24.5
2014-Jul-20 17:00N 37°42' E 010°30'2424.0 1010.2 25.4
2014-Jul-20 16:00N 37°18' E 010°30'2424.5 1012.6 27.4
2014-Jul-20 15:00N 36°54' E 010°24'   1011.1 31.3

Dump ship's entire track history